createdAt,value
2022-12-08T00:01:05.880Z,27.10
2022-12-08T00:03:34.035Z,25.08
2022-12-08T00:06:21.210Z,25.95
2022-12-08T00:09:08.440Z,25.10
2022-12-08T00:11:36.612Z,27.10
2022-12-08T00:14:04.546Z,28.02
2022-12-08T00:16:32.854Z,30.10
2022-12-08T00:19:02.988Z,28.23
2022-12-08T00:21:30.750Z,28.23
2022-12-08T00:23:59.862Z,30.25
2022-12-08T00:26:27.593Z,31.75
2022-12-08T00:28:55.297Z,30.80
2022-12-08T00:31:23.055Z,30.15
2022-12-08T00:33:50.807Z,27.23
2022-12-08T00:36:18.523Z,27.30
2022-12-08T00:38:48.295Z,29.17
2022-12-08T00:41:40.161Z,30.70
2022-12-08T00:44:08.010Z,30.50
2022-12-08T00:46:37.965Z,29.08
2022-12-08T00:49:06.225Z,27.17
2022-12-08T00:51:34.419Z,30.63
2022-12-08T00:54:02.168Z,25.83
2022-12-08T00:56:31.629Z,25.88
2022-12-08T00:58:59.591Z,27.17
2022-12-08T01:01:27.830Z,26.15
2022-12-08T01:03:55.630Z,27.73
2022-12-08T01:06:23.659Z,29.38
2022-12-08T01:08:51.382Z,32.03
2022-12-08T01:11:20.555Z,25.90
2022-12-08T01:13:52.212Z,27.48
2022-12-08T01:16:21.718Z,25.98
2022-12-08T01:18:49.905Z,26.63
2022-12-08T01:21:17.708Z,25.42
2022-12-08T01:23:45.844Z,29.50
2022-12-08T01:26:15.285Z,30.45
2022-12-08T01:28:43.717Z,26.70
2022-12-08T01:31:15.710Z,26.52
2022-12-08T01:33:44.421Z,28.38
2022-12-08T01:36:20.862Z,27.45
2022-12-08T01:38:48.816Z,30.40
2022-12-08T01:41:17.846Z,28.73
2022-12-08T01:43:59.210Z,27.85
2022-12-08T01:46:32.157Z,31.10
2022-12-08T01:49:04.679Z,29.52
2022-12-08T01:51:35.642Z,29.58
2022-12-08T01:54:08.171Z,29.48
2022-12-08T01:56:42.638Z,34.95
2022-12-08T01:59:12.047Z,29.33
2022-12-08T02:01:41.252Z,29.85
2022-12-08T02:04:11.746Z,30.63
2022-12-08T02:06:42.902Z,27.08
2022-12-08T02:09:11.025Z,27.45
2022-12-08T02:11:38.731Z,27.80
2022-12-08T02:14:09.337Z,27.48
2022-12-08T02:16:46.583Z,31.40
2022-12-08T02:19:39.149Z,26.00
2022-12-08T02:22:14.397Z,27.45
2022-12-08T02:24:50.585Z,28.67
2022-12-08T02:27:31.976Z,29.00
2022-12-08T02:30:12.679Z,29.52
2022-12-08T02:33:29.129Z,26.13
2022-12-08T02:36:02.915Z,30.33
2022-12-08T02:38:42.480Z,27.23
2022-12-08T02:41:21.967Z,25.90
2022-12-08T02:43:57.562Z,26.65
2022-12-08T02:46:34.308Z,26.13
2022-12-08T02:49:03.424Z,26.77
2022-12-08T02:51:32.490Z,33.25
2022-12-08T02:54:01.700Z,27.38
2022-12-08T02:56:49.585Z,29.10
2022-12-08T02:59:37.264Z,31.67
2022-12-08T03:02:26.830Z,30.55
2022-12-08T03:05:03.613Z,27.88
2022-12-08T03:07:36.579Z,25.60
2022-12-08T03:10:13.903Z,27.52
2022-12-08T03:12:45.961Z,29.15
2022-12-08T03:15:17.002Z,29.58
2022-12-08T03:17:50.162Z,31.25
2022-12-08T03:20:22.686Z,30.67
2022-12-08T03:22:57.277Z,29.40
2022-12-08T03:25:27.141Z,27.20
2022-12-08T03:27:55.290Z,28.60
2022-12-08T03:30:23.194Z,26.77
2022-12-08T03:32:54.003Z,28.27
2022-12-08T03:35:25.841Z,28.90
2022-12-08T03:38:03.247Z,31.08
2022-12-08T03:40:30.928Z,29.55
2022-12-08T03:42:58.637Z,27.30
2022-12-08T03:45:26.669Z,35.70
2022-12-08T03:47:57.337Z,31.23
2022-12-08T03:50:25.435Z,32.92
2022-12-08T03:52:54.596Z,29.70
2022-12-08T03:55:22.453Z,29.38
2022-12-08T03:57:50.119Z,32.08
2022-12-08T04:00:18.459Z,32.80
2022-12-08T04:02:46.273Z,31.52
2022-12-08T04:05:14.037Z,34.03
2022-12-08T04:07:44.228Z,28.52
2022-12-08T04:10:13.543Z,32.03
2022-12-08T04:12:41.242Z,27.83
2022-12-08T04:15:10.390Z,31.63
2022-12-08T04:17:40.628Z,27.05
2022-12-08T04:20:08.993Z,27.88
2022-12-08T04:22:36.681Z,29.42
2022-12-08T04:25:04.823Z,30.83
2022-12-08T04:27:33.893Z,33.35
2022-12-08T04:30:01.816Z,34.72
2022-12-08T04:32:29.707Z,28.80
2022-12-08T04:34:57.499Z,35.20
2022-12-08T04:37:27.330Z,29.50
2022-12-08T04:39:55.136Z,31.55
2022-12-08T04:42:25.372Z,31.15
2022-12-08T04:44:54.449Z,30.83
2022-12-08T04:47:22.206Z,33.28
2022-12-08T04:49:49.903Z,29.58
2022-12-08T04:52:17.703Z,31.80
2022-12-08T04:54:45.457Z,29.73
2022-12-08T04:57:13.187Z,29.75
2022-12-08T04:59:40.994Z,30.55
2022-12-08T05:02:10.273Z,30.55
2022-12-08T05:04:38.193Z,34.70
2022-12-08T05:07:06.695Z,34.35
2022-12-08T05:09:34.510Z,36.10
2022-12-08T05:12:11.076Z,30.00
2022-12-08T05:14:38.856Z,34.10
2022-12-08T05:17:09.756Z,30.15
2022-12-08T05:19:39.142Z,33.55
2022-12-08T05:22:06.961Z,33.83
2022-12-08T05:24:34.749Z,31.92
2022-12-08T05:27:02.470Z,31.85
2022-12-08T05:29:30.144Z,32.00
2022-12-08T05:31:57.913Z,33.88
2022-12-08T05:34:25.881Z,28.90
2022-12-08T05:36:57.302Z,31.27
2022-12-08T05:39:25.033Z,28.83
2022-12-08T05:41:52.699Z,33.30
2022-12-08T05:44:20.428Z,29.17
2022-12-08T05:46:48.102Z,33.17
2022-12-08T05:49:15.860Z,34.03
2022-12-08T05:51:43.660Z,35.38
2022-12-08T05:54:12.746Z,32.10
2022-12-08T05:56:40.501Z,29.25
2022-12-08T05:59:08.547Z,30.23
2022-12-08T06:01:37.072Z,27.40
2022-12-08T06:04:05.937Z,29.83
2022-12-08T06:06:38.818Z,31.85
2022-12-08T06:09:07.487Z,30.73
2022-12-08T06:11:39.673Z,27.92
2022-12-08T06:14:11.864Z,27.88
2022-12-08T06:16:39.909Z,29.90
2022-12-08T06:19:07.692Z,29.40
2022-12-08T06:21:35.519Z,27.58
2022-12-08T06:24:03.212Z,29.02
2022-12-08T06:26:32.435Z,27.98
2022-12-08T06:29:01.710Z,28.20
2022-12-08T06:31:29.600Z,30.92
2022-12-08T06:33:57.616Z,31.98
2022-12-08T06:36:28.366Z,31.15
2022-12-08T06:38:56.133Z,31.65
2022-12-08T06:41:26.577Z,31.33
2022-12-08T06:43:57.095Z,36.10
2022-12-08T06:46:26.337Z,33.50
2022-12-08T06:48:54.365Z,28.75
2022-12-08T06:51:23.511Z,28.90
2022-12-08T06:53:51.466Z,30.92
2022-12-08T06:56:20.498Z,30.85
2022-12-08T06:58:52.300Z,32.20
2022-12-08T07:01:20.755Z,30.48
2022-12-08T07:03:50.046Z,28.67
2022-12-08T07:06:20.593Z,30.85
2022-12-08T07:08:49.985Z,31.63
2022-12-08T07:11:21.849Z,31.17
2022-12-08T07:13:50.491Z,38.47
2022-12-08T07:16:18.303Z,31.10
2022-12-08T07:18:46.111Z,31.92
2022-12-08T07:21:18.227Z,35.00
2022-12-08T07:23:50.222Z,38.90
2022-12-08T07:26:21.898Z,35.55
2022-12-08T07:28:49.664Z,34.63
2022-12-08T07:31:20.089Z,38.85
2022-12-08T07:33:50.718Z,39.03
2022-12-08T07:36:19.951Z,37.75
2022-12-08T07:38:48.024Z,35.83
2022-12-08T07:41:19.814Z,32.90
2022-12-08T07:43:47.589Z,35.17
2022-12-08T07:46:17.085Z,32.25
2022-12-08T07:48:46.201Z,34.08
2022-12-08T07:51:15.713Z,27.88
2022-12-08T07:53:53.200Z,38.42
2022-12-08T07:56:21.956Z,28.65
2022-12-08T07:58:50.163Z,30.50
2022-12-08T08:01:23.544Z,28.70
2022-12-08T08:03:51.686Z,30.98
2022-12-08T08:06:19.396Z,25.67
2022-12-08T08:08:48.680Z,25.55
2022-12-08T08:11:20.809Z,23.75
2022-12-08T08:13:50.550Z,23.52
2022-12-08T08:16:19.544Z,21.73
2022-12-08T08:18:48.248Z,23.25
2022-12-08T08:21:43.674Z,24.15
2022-12-08T08:24:05.889Z,20.92
2022-12-08T08:26:33.683Z,20.55
2022-12-08T08:29:03.148Z,19.52
2022-12-08T08:31:31.026Z,19.77
2022-12-08T08:34:00.664Z,23.40
2022-12-08T08:36:28.377Z,17.98
2022-12-08T08:38:56.118Z,19.38
2022-12-08T08:41:25.255Z,19.25
2022-12-08T08:43:56.260Z,18.80
2022-12-08T08:46:24.056Z,18.58
2022-12-08T08:48:51.793Z,18.10
2022-12-08T08:51:19.602Z,17.55
2022-12-08T08:53:47.380Z,15.63
2022-12-08T08:56:18.393Z,14.75
2022-12-08T08:58:51.656Z,15.05
2022-12-08T09:01:21.258Z,16.73
2022-12-08T09:03:53.291Z,22.58
2022-12-08T09:06:21.671Z,14.05
2022-12-08T09:08:50.328Z,15.27
2022-12-08T09:11:19.006Z,15.38
2022-12-08T09:13:50.596Z,15.18
2022-12-08T09:16:19.434Z,13.93
2022-12-08T09:18:48.287Z,15.63
2022-12-08T09:21:22.266Z,15.85
2022-12-08T09:23:50.470Z,17.65
2022-12-08T09:26:18.352Z,13.93
2022-12-08T09:28:46.668Z,16.65
2022-12-08T09:31:16.208Z,17.80
2022-12-08T09:33:44.234Z,15.73
2022-12-08T09:36:12.618Z,17.52
2022-12-08T09:38:40.869Z,17.00
2022-12-08T09:41:37.875Z,18.58
2022-12-08T09:44:27.874Z,17.27
2022-12-08T09:49:37.677Z,13.63
2022-12-08T09:52:07.076Z,15.07
2022-12-08T09:54:36.845Z,14.82
2022-12-08T09:57:08.637Z,14.05
2022-12-08T09:59:36.875Z,13.98
2022-12-08T10:02:20.250Z,12.82
2022-12-08T10:04:48.173Z,11.93
2022-12-08T10:07:21.912Z,14.23
2022-12-08T10:09:55.585Z,17.35
2022-12-08T10:12:28.020Z,14.90
2022-12-08T10:15:05.161Z,13.70
2022-12-08T10:17:37.970Z,18.75
2022-12-08T10:20:13.393Z,18.67
2022-12-08T10:22:44.725Z,16.17
2022-12-08T10:25:17.448Z,16.20
2022-12-08T10:27:45.544Z,17.17
2022-12-08T10:30:14.756Z,15.23
2022-12-08T10:32:47.600Z,15.52
2022-12-08T10:35:17.407Z,19.33
2022-12-08T10:37:57.318Z,19.75
2022-12-08T10:40:28.116Z,18.40
2022-12-08T10:42:59.000Z,18.17
2022-12-08T10:45:29.133Z,20.88
2022-12-08T10:48:03.350Z,17.85
2022-12-08T10:50:36.861Z,19.15
2022-12-08T10:53:14.691Z,16.58
2022-12-08T10:55:45.230Z,15.85
2022-12-08T10:58:27.329Z,20.33
2022-12-08T11:00:57.430Z,19.33
2022-12-08T11:03:29.834Z,18.90
2022-12-08T11:06:05.395Z,17.20
2022-12-08T11:08:48.144Z,17.45
2022-12-08T11:11:17.001Z,19.98
2022-12-08T11:13:44.863Z,23.33
2022-12-08T11:16:16.524Z,18.17
2022-12-08T11:18:49.825Z,19.88
2022-12-08T11:21:19.776Z,21.65
2022-12-08T11:23:50.642Z,20.00
2022-12-08T11:26:24.870Z,19.25
2022-12-08T11:28:52.856Z,17.80
2022-12-08T11:31:29.501Z,18.50
2022-12-08T11:33:58.781Z,20.33
2022-12-08T11:36:30.067Z,16.80
2022-12-08T11:39:01.808Z,14.40
2022-12-08T11:41:34.610Z,11.48
2022-12-08T11:44:09.392Z,11.90
2022-12-08T11:46:44.224Z,13.10
2022-12-08T11:49:14.691Z,16.73
2022-12-08T11:51:54.122Z,33.83
2022-12-08T11:54:25.373Z,37.75
2022-12-08T11:56:56.970Z,30.73
2022-12-08T11:59:29.925Z,34.90
2022-12-08T12:01:59.387Z,36.72
2022-12-08T12:04:33.003Z,32.58
2022-12-08T12:07:33.136Z,33.08
2022-12-08T12:10:21.914Z,35.15
2022-12-08T12:13:04.750Z,32.05
2022-12-08T12:16:07.573Z,33.00
2022-12-08T12:18:45.434Z,33.47
2022-12-08T12:21:20.223Z,29.38
2022-12-08T12:23:52.927Z,29.70
2022-12-08T12:26:23.621Z,32.17
2022-12-08T12:28:54.577Z,29.83
2022-12-08T12:31:26.077Z,29.88
2022-12-08T12:33:58.080Z,27.95
2022-12-08T12:36:27.180Z,29.17
2022-12-08T12:39:04.207Z,32.70
2022-12-08T12:41:38.617Z,28.95
2022-12-08T12:44:40.733Z,31.77
2022-12-08T12:47:15.928Z,28.65
2022-12-08T12:50:05.692Z,38.60
2022-12-08T12:52:50.443Z,29.98
2022-12-08T12:55:51.006Z,29.52
2022-12-08T12:58:42.489Z,32.17
2022-12-08T13:01:45.400Z,29.98
2022-12-08T13:04:13.518Z,30.88
2022-12-08T13:06:45.237Z,27.33
2022-12-08T13:09:37.415Z,31.08
2022-12-08T13:12:11.429Z,27.13
2022-12-08T13:14:47.143Z,29.05
2022-12-08T13:17:22.306Z,26.63
2022-12-08T13:19:55.575Z,33.83
2022-12-08T13:23:00.657Z,30.63
2022-12-08T13:25:52.569Z,29.60
2022-12-08T13:28:24.822Z,28.10
2022-12-08T13:30:53.765Z,28.02
2022-12-08T13:33:27.237Z,30.35
2022-12-08T13:36:04.788Z,30.27
2022-12-08T13:38:36.150Z,35.78
2022-12-08T13:41:14.777Z,30.13
2022-12-08T13:44:10.555Z,32.38
2022-12-08T13:56:51.617Z,25.45
2022-12-08T13:58:26.089Z,31.60
2022-12-08T14:01:00.644Z,30.00
2022-12-08T14:03:28.642Z,27.23
2022-12-08T14:06:12.044Z,29.02
2022-12-08T14:09:02.621Z,30.77
2022-12-08T14:11:35.831Z,34.95
2022-12-08T14:14:08.691Z,31.60
2022-12-08T14:16:40.284Z,32.28
2022-12-08T14:19:17.597Z,35.90
2022-12-08T14:21:52.252Z,32.42
2022-12-08T14:24:20.080Z,38.47
2022-12-08T14:26:48.333Z,35.85
2022-12-08T14:29:42.455Z,33.20
2022-12-08T14:32:28.920Z,31.35
2022-12-08T14:35:00.005Z,30.70
2022-12-08T14:37:29.727Z,35.05
2022-12-08T14:40:03.983Z,31.67
2022-12-08T14:42:32.108Z,35.30
2022-12-08T14:45:05.368Z,36.55
2022-12-08T14:47:35.210Z,32.80
2022-12-08T14:50:04.982Z,32.58
2022-12-08T14:52:32.980Z,35.35
2022-12-08T14:55:00.861Z,34.33
2022-12-08T14:57:36.368Z,35.95
2022-12-08T15:02:49.222Z,32.25
2022-12-08T15:05:20.198Z,35.75
2022-12-08T15:07:51.142Z,35.95
2022-12-08T15:10:29.701Z,34.00
2022-12-08T15:13:02.872Z,38.88
2022-12-08T15:15:33.227Z,37.47
2022-12-08T15:18:13.347Z,34.92
2022-12-08T15:20:43.055Z,40.20
2022-12-08T15:23:23.620Z,36.22
2022-12-08T15:25:51.817Z,33.90
2022-12-08T15:28:25.199Z,32.00
2022-12-08T15:30:57.808Z,30.42
2022-12-08T15:33:25.700Z,34.17
2022-12-08T15:35:54.173Z,32.08
2022-12-08T15:38:25.785Z,33.03
2022-12-08T15:40:54.836Z,32.80
2022-12-08T15:43:23.402Z,35.47
2022-12-08T15:45:59.119Z,35.40
2022-12-08T15:48:30.800Z,37.92
2022-12-08T15:50:58.767Z,38.05
2022-12-08T15:53:31.492Z,29.02
2022-12-08T15:58:57.623Z,39.92
2022-12-08T16:01:26.083Z,33.63
2022-12-08T16:07:19.636Z,37.05
2022-12-08T16:09:36.969Z,34.80
2022-12-08T16:12:22.819Z,41.30
2022-12-08T16:17:39.349Z,34.67
2022-12-08T16:20:16.755Z,34.25
2022-12-08T16:22:54.499Z,32.95
2022-12-08T16:25:36.392Z,35.30
2022-12-08T16:28:45.158Z,36.83
2022-12-08T16:31:01.990Z,31.65
2022-12-08T16:33:31.852Z,36.63
2022-12-08T16:36:00.921Z,36.90
2022-12-08T16:38:28.660Z,36.42
2022-12-08T16:41:10.361Z,36.83
2022-12-08T16:43:38.139Z,31.92
2022-12-08T16:46:06.271Z,32.47
2022-12-08T16:48:34.240Z,36.00
2022-12-08T16:51:04.618Z,36.85
2022-12-08T16:53:32.510Z,35.75
2022-12-08T16:56:00.594Z,39.28
2022-12-08T16:58:29.999Z,42.50
2022-12-08T17:00:57.755Z,35.97
2022-12-08T17:03:26.005Z,41.53
2022-12-08T17:05:53.698Z,37.22
2022-12-08T17:08:22.845Z,39.38
2022-12-08T17:11:07.156Z,41.80
2022-12-08T17:13:35.093Z,33.88
2022-12-08T17:16:05.903Z,37.67
2022-12-08T17:18:33.726Z,37.70
2022-12-08T17:21:01.452Z,40.13
2022-12-08T17:23:30.530Z,37.00
2022-12-08T17:25:59.928Z,42.65
2022-12-08T17:28:51.971Z,40.70
2022-12-08T17:31:16.752Z,43.40
2022-12-08T17:33:45.859Z,36.92
2022-12-08T17:36:15.633Z,39.17
2022-12-08T17:38:45.115Z,39.75
2022-12-08T17:41:13.102Z,41.45
2022-12-08T17:43:41.233Z,41.00
2022-12-08T17:46:09.122Z,39.88
2022-12-08T17:48:37.210Z,44.33
2022-12-08T17:51:05.046Z,50.13
2022-12-08T17:53:37.258Z,46.95
2022-12-08T17:56:08.309Z,42.97
2022-12-08T17:58:36.211Z,46.30
2022-12-08T18:01:08.602Z,42.22
2022-12-08T18:03:36.534Z,50.47
2022-12-08T18:06:12.497Z,47.40
2022-12-08T18:08:40.844Z,44.95
2022-12-08T18:11:16.495Z,44.22
2022-12-08T18:13:44.564Z,49.95
2022-12-08T18:16:14.130Z,44.83
2022-12-08T18:18:42.368Z,46.78
2022-12-08T18:21:10.750Z,50.75
2022-12-08T18:23:39.791Z,43.45
2022-12-08T18:26:08.508Z,47.25
2022-12-08T18:28:38.355Z,51.75
2022-12-08T18:31:09.901Z,43.85
2022-12-08T18:33:38.234Z,46.20
2022-12-08T18:36:09.484Z,42.47
2022-12-08T18:38:38.144Z,51.10
2022-12-08T18:41:07.453Z,47.03
2022-12-08T18:43:35.503Z,50.80
2022-12-08T18:46:07.624Z,46.00
2022-12-08T18:48:35.831Z,43.75
2022-12-08T18:51:03.821Z,42.97
2022-12-08T18:53:32.302Z,49.60
2022-12-08T18:56:00.059Z,47.38
2022-12-08T18:58:27.794Z,42.67
2022-12-08T19:00:55.715Z,48.95
2022-12-08T19:03:25.226Z,46.10
2022-12-08T19:06:03.213Z,42.05
2022-12-08T19:08:31.642Z,47.72
2022-12-08T19:11:00.132Z,52.38
2022-12-08T19:13:28.458Z,56.10
2022-12-08T19:15:56.356Z,51.92
2022-12-08T19:18:25.543Z,53.83
2022-12-08T19:20:56.734Z,50.60
2022-12-08T19:23:24.571Z,57.25
2022-12-08T19:25:52.472Z,47.85
2022-12-08T19:28:20.328Z,46.53
2022-12-08T19:30:48.557Z,48.47
2022-12-08T19:33:16.884Z,51.40
2022-12-08T19:35:52.265Z,70.35
2022-12-08T19:38:20.650Z,100.85
2022-12-08T19:41:05.900Z,66.32
2022-12-08T19:43:51.315Z,65.88
2022-12-08T19:46:19.600Z,62.42
2022-12-08T19:48:47.499Z,49.55
2022-12-08T19:51:19.550Z,55.10
2022-12-08T19:53:47.943Z,51.40
2022-12-08T19:56:16.126Z,48.55
2022-12-08T19:58:43.994Z,50.00
2022-12-08T20:01:12.021Z,82.78
2022-12-08T20:03:40.225Z,69.72
2022-12-08T20:06:08.152Z,70.90
2022-12-08T20:08:37.409Z,68.05
2022-12-08T20:11:05.242Z,67.93
2022-12-08T20:13:43.795Z,68.75
2022-12-08T20:16:11.911Z,67.95
2022-12-08T20:18:40.861Z,65.50
2022-12-08T20:21:09.233Z,65.88
2022-12-08T20:23:38.616Z,59.88
2022-12-08T20:26:07.925Z,60.08
2022-12-08T20:28:36.135Z,56.97
2022-12-08T20:31:04.667Z,54.20
2022-12-08T20:33:32.951Z,55.38
2022-12-08T20:36:02.068Z,53.20
2022-12-08T20:38:30.181Z,50.88
2022-12-08T20:41:00.449Z,51.85
2022-12-08T20:43:28.368Z,48.28
2022-12-08T20:45:56.155Z,50.30
2022-12-08T20:48:24.818Z,47.88
2022-12-08T20:50:53.147Z,54.20
2022-12-08T20:53:20.950Z,51.42
2022-12-08T20:55:48.678Z,52.78
2022-12-08T20:58:18.113Z,54.10
2022-12-08T21:00:46.292Z,48.97
2022-12-08T21:03:15.434Z,45.33
2022-12-08T21:05:48.983Z,53.08
2022-12-08T21:08:17.259Z,48.88
2022-12-08T21:10:45.126Z,50.25
2022-12-08T21:13:13.016Z,48.72
2022-12-08T21:15:46.492Z,46.65
2022-12-08T21:18:14.773Z,49.92
2022-12-08T21:20:42.863Z,49.10
2022-12-08T21:23:11.387Z,43.75
2022-12-08T21:25:41.578Z,43.30
2022-12-08T21:28:09.638Z,43.75
2022-12-08T21:30:38.853Z,48.88
2022-12-08T21:33:08.293Z,43.70
2022-12-08T21:35:36.362Z,44.38
2022-12-08T21:38:06.110Z,39.97
2022-12-08T21:40:35.213Z,39.00
2022-12-08T21:43:03.808Z,42.17
2022-12-08T21:45:32.710Z,36.13
2022-12-08T21:48:04.367Z,42.97
2022-12-08T21:50:37.445Z,39.58
2022-12-08T21:53:05.543Z,40.25
2022-12-08T21:55:33.513Z,44.05
2022-12-08T21:58:02.209Z,46.78
2022-12-08T22:00:30.297Z,47.55
2022-12-08T22:02:58.803Z,47.80
2022-12-08T22:05:26.992Z,62.65
2022-12-08T22:07:56.400Z,55.08
2022-12-08T22:10:24.392Z,52.72
2022-12-08T22:12:52.309Z,82.68
2022-12-08T22:15:20.185Z,61.85
2022-12-08T22:17:48.163Z,69.53
2022-12-08T22:20:17.222Z,72.40
2022-12-08T22:22:45.592Z,105.55
2022-12-08T22:25:14.992Z,69.05
2022-12-08T22:27:43.101Z,75.22
2022-12-08T22:30:12.191Z,70.00
2022-12-08T22:32:40.350Z,67.28
2022-12-08T22:35:08.895Z,67.63
2022-12-08T22:37:36.599Z,60.15
2022-12-08T22:40:06.307Z,59.72
2022-12-08T22:42:35.720Z,55.17
2022-12-08T22:45:03.501Z,56.45
2022-12-08T22:47:31.250Z,57.50
2022-12-08T22:49:58.991Z,58.80
2022-12-08T22:52:26.970Z,68.03
2022-12-08T22:54:54.715Z,55.75
2022-12-08T23:03:20.127Z,60.00
2022-12-08T23:05:48.269Z,64.72
2022-12-08T23:08:18.016Z,59.72
2022-12-08T23:10:47.147Z,62.53
2022-12-08T23:13:16.242Z,63.75
2022-12-08T23:15:53.024Z,61.03
2022-12-08T23:18:22.097Z,58.75
2022-12-08T23:20:49.824Z,57.67
2022-12-08T23:23:17.784Z,62.17
2022-12-08T23:25:45.657Z,61.05
2022-12-08T23:28:14.023Z,61.25
2022-12-08T23:30:42.303Z,70.93
2022-12-08T23:33:10.082Z,64.88
2022-12-08T23:35:39.439Z,53.90
2022-12-08T23:38:09.444Z,54.83
2022-12-08T23:40:37.284Z,52.67
2022-12-08T23:43:05.967Z,47.97
2022-12-08T23:45:33.801Z,49.22
2022-12-08T23:48:01.877Z,57.92
2022-12-08T23:50:29.617Z,54.10
2022-12-08T23:52:58.949Z,49.40
2022-12-08T23:55:26.704Z,57.17
2022-12-08T23:57:54.459Z,51.92
